createdAt,value
2023-04-18T00:01:21.275Z,5.80
2023-04-18T00:03:47.913Z,5.81
2023-04-18T00:06:14.701Z,5.72
2023-04-18T00:08:41.159Z,5.77
2023-04-18T00:11:07.682Z,5.78
2023-04-18T00:13:34.479Z,5.86
2023-04-18T00:16:01.688Z,5.82
2023-04-18T00:18:28.341Z,5.75
2023-04-18T00:20:55.045Z,5.83
2023-04-18T00:23:22.119Z,5.77
2023-04-18T00:25:48.772Z,5.78
2023-04-18T00:28:15.710Z,5.86
2023-04-18T00:30:42.074Z,5.88
2023-04-18T00:33:08.844Z,5.75
2023-04-18T00:35:35.892Z,5.84
2023-04-18T00:38:02.264Z,5.90
2023-04-18T00:40:28.681Z,5.83
2023-04-18T00:42:56.355Z,5.90
2023-04-18T00:45:22.694Z,5.99
2023-04-18T00:47:49.054Z,5.80
2023-04-18T00:50:16.518Z,5.89
2023-04-18T00:52:44.534Z,5.89
2023-04-18T00:55:11.425Z,5.82
2023-04-18T00:57:38.186Z,5.84
2023-04-18T01:00:10.246Z,5.69
2023-04-18T01:02:38.224Z,5.83
2023-04-18T01:05:06.042Z,5.82
2023-04-18T01:07:35.751Z,5.75
2023-04-18T01:10:02.741Z,5.69
2023-04-18T01:12:29.114Z,5.69
2023-04-18T01:14:55.513Z,5.69
2023-04-18T01:17:23.865Z,5.73
2023-04-18T01:19:50.895Z,5.72
2023-04-18T01:22:17.421Z,5.77
2023-04-18T01:24:44.220Z,5.59
2023-04-18T01:27:14.185Z,5.72
2023-04-18T01:29:40.893Z,5.66
2023-04-18T01:32:07.874Z,5.75
2023-04-18T01:34:34.327Z,5.84
2023-04-18T01:37:00.734Z,5.81
2023-04-18T01:39:28.329Z,5.78
2023-04-18T01:41:55.056Z,5.72
2023-04-18T01:44:21.973Z,5.70
2023-04-18T01:46:48.339Z,5.86
2023-04-18T01:49:14.658Z,5.75
2023-04-18T01:51:42.434Z,5.93
2023-04-18T01:54:08.739Z,5.68
2023-04-18T01:56:35.094Z,5.73
2023-04-18T01:59:01.771Z,5.79
2023-04-18T02:01:28.122Z,5.68
2023-04-18T02:03:54.632Z,5.70
2023-04-18T02:06:21.936Z,5.72
2023-04-18T02:08:48.278Z,5.62
2023-04-18T02:11:14.589Z,5.49
2023-04-18T02:13:41.558Z,5.59
2023-04-18T02:16:16.696Z,5.60
2023-04-18T02:18:44.118Z,5.62
2023-04-18T02:21:11.144Z,5.63
2023-04-18T02:23:37.587Z,5.72
2023-04-18T02:26:04.511Z,5.70
2023-04-18T02:28:30.896Z,5.73
2023-04-18T02:30:59.252Z,5.62
2023-04-18T02:33:26.121Z,5.60
2023-04-18T02:35:52.460Z,5.64
2023-04-18T02:38:18.785Z,5.55
2023-04-18T02:40:45.997Z,5.61
2023-04-18T02:43:12.686Z,5.63
2023-04-18T02:45:39.244Z,5.51
2023-04-18T02:48:05.750Z,5.50
2023-04-18T02:50:32.636Z,5.50
2023-04-18T02:52:58.966Z,5.59
2023-04-18T02:55:26.854Z,5.58
2023-04-18T02:57:53.948Z,5.67
2023-04-18T03:00:20.565Z,5.79
2023-04-18T03:02:47.077Z,5.69
2023-04-18T03:05:13.959Z,5.78
2023-04-18T03:07:40.274Z,5.88
2023-04-18T03:10:07.372Z,5.93
2023-04-18T03:12:34.072Z,5.88
2023-04-18T03:15:00.482Z,5.77
2023-04-18T03:17:27.031Z,5.69
2023-04-18T03:19:53.794Z,5.65
2023-04-18T03:22:20.186Z,5.77
2023-04-18T03:24:46.594Z,5.74
2023-04-18T03:27:13.838Z,5.71
2023-04-18T03:29:40.207Z,5.67
2023-04-18T03:32:06.898Z,5.66
2023-04-18T03:34:33.225Z,5.60
2023-04-18T03:36:59.534Z,5.66
2023-04-18T03:39:26.234Z,5.63
2023-04-18T03:41:52.548Z,5.62
2023-04-18T03:44:19.383Z,5.70
2023-04-18T03:46:45.855Z,5.79
2023-04-18T03:49:12.581Z,5.59
2023-04-18T03:51:45.109Z,5.55
2023-04-18T03:54:11.629Z,5.52
2023-04-18T03:56:38.594Z,5.51
2023-04-18T03:59:05.174Z,5.53
2023-04-18T04:01:32.328Z,5.59
2023-04-18T04:03:58.855Z,5.59
2023-04-18T04:06:26.163Z,5.74
2023-04-18T04:08:52.938Z,5.61
2023-04-18T04:11:19.320Z,5.60
2023-04-18T04:13:45.689Z,5.55
2023-04-18T04:16:12.715Z,5.65
2023-04-18T04:18:39.149Z,5.62
2023-04-18T04:21:06.567Z,5.51
2023-04-18T04:23:34.502Z,5.62
2023-04-18T04:26:04.517Z,5.65
2023-04-18T04:28:31.453Z,5.62
2023-04-18T04:30:58.404Z,5.77
2023-04-18T04:33:28.486Z,5.61
2023-04-18T04:35:55.517Z,5.70
2023-04-18T04:38:25.541Z,5.72
2023-04-18T04:40:52.800Z,5.90
2023-04-18T04:43:20.335Z,5.82
2023-04-18T04:45:53.019Z,5.75
2023-04-18T04:48:20.233Z,5.79
2023-04-18T04:50:55.555Z,5.84
2023-04-18T04:53:22.624Z,5.68
2023-04-18T04:55:49.188Z,5.61
2023-04-18T04:58:16.007Z,5.61
2023-04-18T05:00:42.387Z,5.90
2023-04-18T05:03:09.913Z,5.98
2023-04-18T05:05:36.877Z,5.77
2023-04-18T05:08:03.834Z,5.64
2023-04-18T05:10:30.588Z,5.74
2023-04-18T05:12:57.611Z,5.78
2023-04-18T05:15:24.685Z,5.68
2023-04-18T05:17:51.145Z,5.95
2023-04-18T05:20:17.885Z,5.73
2023-04-18T05:22:44.251Z,5.82
2023-04-18T05:25:11.038Z,6.12
2023-04-18T05:27:37.358Z,5.98
2023-04-18T05:30:04.327Z,5.99
2023-04-18T05:32:30.823Z,5.82
2023-04-18T05:34:57.567Z,5.99
2023-04-18T05:37:23.962Z,6.16
2023-04-18T05:39:50.378Z,6.00
2023-04-18T05:42:16.915Z,6.18
2023-04-18T05:44:43.844Z,6.31
2023-04-18T05:47:10.247Z,6.16
2023-04-18T05:49:36.641Z,6.10
2023-04-18T05:52:03.578Z,6.35
2023-04-18T05:54:29.937Z,6.34
2023-04-18T05:56:57.692Z,6.30
2023-04-18T05:59:25.079Z,6.35
2023-04-18T06:01:51.410Z,6.56
2023-04-18T06:04:19.430Z,6.49
2023-04-18T06:06:46.172Z,6.73
2023-04-18T06:09:12.896Z,6.93
2023-04-18T06:11:39.603Z,6.85
2023-04-18T06:14:05.953Z,6.37
2023-04-18T06:16:32.367Z,6.22
2023-04-18T06:19:01.227Z,6.18
2023-04-18T06:21:27.885Z,6.20
2023-04-18T06:23:54.384Z,6.14
2023-04-18T06:26:21.436Z,6.38
2023-04-18T06:28:47.800Z,6.52
2023-04-18T06:31:15.135Z,6.93
2023-04-18T06:33:41.598Z,7.33
2023-04-18T06:36:08.859Z,7.33
2023-04-18T06:38:35.343Z,7.32
2023-04-18T06:41:01.730Z,7.73
2023-04-18T06:43:28.087Z,7.74
2023-04-18T06:45:54.793Z,7.78
2023-04-18T06:48:22.012Z,7.93
2023-04-18T06:50:48.332Z,8.03
2023-04-18T06:53:14.888Z,7.71
2023-04-18T06:55:41.684Z,7.65
2023-04-18T06:58:08.467Z,7.76
2023-04-18T07:00:35.335Z,8.10
2023-04-18T07:03:04.685Z,8.46
2023-04-18T07:05:31.121Z,9.01
2023-04-18T07:07:57.831Z,9.30
2023-04-18T07:10:24.311Z,9.05
2023-04-18T07:12:50.735Z,9.00
2023-04-18T07:15:17.575Z,9.54
2023-04-18T07:17:43.951Z,9.87
2023-04-18T07:20:12.340Z,9.07
2023-04-18T07:22:41.445Z,9.43
2023-04-18T07:25:08.354Z,9.89
2023-04-18T07:27:36.508Z,9.69
2023-04-18T07:30:04.676Z,9.71
2023-04-18T07:32:31.438Z,9.54
2023-04-18T07:34:57.815Z,9.84
2023-04-18T07:37:24.573Z,9.10
2023-04-18T07:39:51.442Z,9.62
2023-04-18T07:42:18.187Z,9.38
2023-04-18T07:44:45.033Z,9.68
2023-04-18T07:47:12.299Z,9.41
2023-04-18T07:49:38.779Z,9.54
2023-04-18T07:52:05.762Z,9.84
2023-04-18T07:54:32.276Z,9.98
2023-04-18T07:56:59.169Z,9.68
2023-04-18T07:59:26.107Z,9.49
2023-04-18T08:01:52.458Z,10.28
2023-04-18T08:04:18.975Z,10.73
2023-04-18T08:06:45.834Z,10.78
2023-04-18T08:09:12.456Z,11.18
2023-04-18T08:11:42.259Z,11.98
2023-04-18T08:14:08.624Z,11.98
2023-04-18T08:16:35.418Z,11.47
2023-04-18T08:19:01.818Z,12.07
2023-04-18T08:21:28.173Z,12.50
2023-04-18T08:23:54.942Z,12.16
2023-04-18T08:26:21.980Z,12.52
2023-04-18T08:28:48.363Z,12.15
2023-04-18T08:31:15.675Z,11.06
2023-04-18T08:33:42.084Z,11.28
2023-04-18T08:36:08.860Z,11.10
2023-04-18T08:38:35.766Z,11.00
2023-04-18T08:41:02.251Z,10.66
2023-04-18T08:43:30.993Z,10.42
2023-04-18T08:46:01.093Z,11.43
2023-04-18T08:48:30.506Z,11.34
2023-04-18T08:50:58.616Z,11.06
2023-04-18T08:53:27.858Z,11.27
2023-04-18T08:55:57.854Z,11.13
2023-04-18T08:58:27.553Z,11.51
2023-04-18T09:00:54.764Z,11.92
2023-04-18T09:03:40.429Z,10.49
2023-04-18T09:06:13.891Z,10.69
2023-04-18T09:08:43.830Z,10.74
2023-04-18T09:11:42.284Z,10.65
2023-04-18T09:14:09.070Z,10.58
2023-04-18T09:16:47.160Z,10.69
2023-04-18T09:19:18.897Z,10.57
2023-04-18T09:21:48.571Z,11.04
2023-04-18T09:24:24.498Z,11.18
2023-04-18T09:26:53.746Z,10.86
2023-04-18T09:29:23.675Z,10.68
2023-04-18T09:32:03.377Z,10.85
2023-04-18T09:34:30.222Z,10.66
2023-04-18T09:37:06.575Z,10.64
2023-04-18T09:39:33.474Z,10.64
2023-04-18T09:42:01.253Z,10.91
2023-04-18T09:44:27.778Z,10.89
2023-04-18T09:46:54.578Z,10.85
2023-04-18T09:49:22.861Z,11.06
2023-04-18T09:51:51.965Z,11.06
2023-04-18T09:54:20.844Z,11.30
2023-04-18T09:56:50.423Z,10.70
2023-04-18T09:59:41.785Z,10.66
2023-04-18T10:02:18.657Z,11.24
2023-04-18T10:04:47.608Z,11.71
2023-04-18T10:07:16.874Z,11.53
2023-04-18T10:09:46.838Z,11.26
2023-04-18T10:12:14.661Z,11.22
2023-04-18T10:14:45.889Z,11.13
2023-04-18T10:17:15.290Z,11.28
2023-04-18T10:19:44.265Z,11.62
2023-04-18T10:22:12.114Z,11.65
2023-04-18T10:24:49.155Z,11.65
2023-04-18T10:27:17.441Z,11.76
2023-04-18T10:29:53.100Z,11.91
2023-04-18T10:32:26.217Z,11.58
2023-04-18T10:35:02.318Z,11.87
2023-04-18T10:37:31.969Z,11.72
2023-04-18T10:40:06.744Z,11.54
2023-04-18T10:42:45.660Z,11.77
2023-04-18T10:45:26.143Z,11.30
2023-04-18T10:48:40.680Z,11.39
2023-04-18T10:51:16.446Z,11.66
2023-04-18T10:53:54.805Z,11.68
2023-04-18T10:56:26.331Z,12.20
2023-04-18T10:58:54.903Z,13.40
2023-04-18T11:01:32.481Z,13.47
2023-04-18T11:04:00.901Z,13.69
2023-04-18T11:06:28.623Z,13.09
2023-04-18T11:09:15.208Z,13.28
2023-04-18T11:11:42.556Z,13.17
2023-04-18T11:14:09.664Z,13.02
2023-04-18T11:16:36.951Z,12.56
2023-04-18T11:19:25.463Z,12.73
2023-04-18T11:21:52.612Z,13.22
2023-04-18T11:24:24.195Z,13.35
2023-04-18T11:26:56.480Z,12.76
2023-04-18T11:29:23.261Z,12.51
2023-04-18T11:31:53.054Z,12.70
2023-04-18T11:34:21.535Z,12.74
2023-04-18T11:36:52.987Z,12.71
2023-04-18T11:39:23.773Z,12.40
2023-04-18T11:41:51.377Z,12.57
2023-04-18T11:44:23.274Z,13.08
2023-04-18T11:46:51.873Z,12.96
2023-04-18T11:49:30.027Z,13.08
2023-04-18T11:51:57.388Z,12.62
2023-04-18T11:54:41.854Z,12.48
2023-04-18T11:57:23.860Z,12.49
2023-04-18T11:59:51.361Z,12.21
2023-04-18T12:02:18.374Z,12.30
2023-04-18T12:04:57.810Z,12.21
2023-04-18T12:07:38.658Z,12.00
2023-04-18T12:10:07.894Z,12.16
2023-04-18T12:12:36.089Z,12.14
2023-04-18T12:15:07.832Z,13.17
2023-04-18T12:17:36.798Z,13.25
2023-04-18T12:20:05.826Z,13.32
2023-04-18T12:22:52.524Z,12.78
2023-04-18T12:25:27.443Z,12.71
2023-04-18T12:28:02.749Z,12.29
2023-04-18T12:30:37.422Z,12.29
2023-04-18T12:33:05.294Z,12.59
2023-04-18T12:35:33.315Z,12.46
2023-04-18T12:38:02.039Z,12.49
2023-04-18T12:40:30.221Z,12.59
2023-04-18T12:42:57.012Z,12.71
2023-04-18T12:45:24.793Z,13.07
2023-04-18T12:47:52.277Z,13.51
2023-04-18T12:50:21.405Z,13.24
2023-04-18T12:52:48.139Z,13.27
2023-04-18T12:55:15.479Z,13.17
2023-04-18T12:57:43.116Z,12.90
2023-04-18T13:00:11.215Z,12.68
2023-04-18T13:02:39.421Z,12.87
2023-04-18T13:05:11.214Z,12.67
2023-04-18T13:07:40.593Z,12.95
2023-04-18T13:10:11.836Z,13.08
2023-04-18T13:12:39.226Z,12.53
2023-04-18T13:15:06.992Z,11.92
2023-04-18T13:17:33.755Z,12.21
2023-04-18T13:20:00.655Z,12.28
2023-04-18T13:22:29.005Z,12.51
2023-04-18T13:24:55.322Z,12.07
2023-04-18T13:27:21.647Z,11.87
2023-04-18T13:29:48.382Z,12.29
2023-04-18T13:32:14.885Z,12.41
2023-04-18T13:34:44.401Z,11.87
2023-04-18T13:37:11.061Z,12.28
2023-04-18T13:39:37.438Z,12.10
2023-04-18T13:42:04.438Z,12.25
2023-04-18T13:44:31.487Z,12.50
2023-04-18T13:46:58.068Z,12.30
2023-04-18T13:49:24.813Z,12.20
2023-04-18T13:51:53.378Z,11.90
2023-04-18T13:54:20.049Z,12.02
2023-04-18T13:56:46.805Z,11.82
2023-04-18T13:59:13.260Z,11.96
2023-04-18T14:01:39.862Z,12.18
2023-04-18T14:04:06.944Z,12.44
2023-04-18T14:06:33.442Z,12.14
2023-04-18T14:08:59.786Z,12.09
2023-04-18T14:11:26.982Z,11.99
2023-04-18T14:13:53.315Z,11.92
2023-04-18T14:16:19.700Z,12.00
2023-04-18T14:18:46.487Z,11.99
2023-04-18T14:21:12.868Z,11.92
2023-04-18T14:23:39.189Z,12.03
2023-04-18T14:26:05.907Z,11.71
2023-04-18T14:28:32.351Z,11.26
2023-04-18T14:31:02.314Z,11.13
2023-04-18T14:33:29.190Z,11.30
2023-04-18T14:35:55.862Z,11.23
2023-04-18T14:38:22.215Z,11.34
2023-04-18T14:40:48.554Z,11.43
2023-04-18T14:43:15.273Z,11.19
2023-04-18T14:45:41.655Z,11.26
2023-04-18T14:48:10.217Z,11.12
2023-04-18T14:50:38.507Z,11.08
2023-04-18T14:53:05.949Z,11.31
2023-04-18T14:55:33.269Z,11.43
2023-04-18T14:58:00.186Z,11.43
2023-04-18T15:00:26.997Z,11.59
2023-04-18T15:02:53.798Z,11.57
2023-04-18T15:05:24.102Z,11.77
2023-04-18T15:07:51.847Z,11.67
2023-04-18T15:10:20.677Z,11.37
2023-04-18T15:12:47.583Z,11.27
2023-04-18T15:15:14.043Z,11.31
2023-04-18T15:17:40.866Z,11.25
2023-04-18T15:20:08.512Z,11.21
2023-04-18T15:22:36.024Z,11.18
2023-04-18T15:25:04.010Z,10.92
2023-04-18T15:27:30.701Z,10.98
2023-04-18T15:29:57.019Z,11.07
2023-04-18T15:32:24.619Z,10.95
2023-04-18T15:34:52.045Z,11.04
2023-04-18T15:37:18.473Z,11.38
2023-04-18T15:39:44.813Z,11.52
2023-04-18T15:42:11.691Z,11.90
2023-04-18T15:44:38.023Z,11.90
2023-04-18T15:47:04.372Z,11.79
2023-04-18T15:49:31.509Z,11.92
2023-04-18T15:52:02.021Z,11.72
2023-04-18T15:54:28.400Z,11.90
2023-04-18T15:56:55.874Z,11.48
2023-04-18T15:59:22.276Z,11.27
2023-04-18T16:01:48.786Z,11.21
2023-04-18T16:04:15.888Z,11.17
2023-04-18T16:06:42.518Z,11.18
2023-04-18T16:09:09.235Z,10.98
2023-04-18T16:11:36.008Z,10.84
2023-04-18T16:14:02.322Z,10.82
2023-04-18T16:16:28.660Z,10.98
2023-04-18T16:18:56.832Z,10.92
2023-04-18T16:21:23.212Z,10.78
2023-04-18T16:23:49.731Z,10.77
2023-04-18T16:26:16.254Z,10.77
2023-04-18T16:28:42.610Z,10.79
2023-04-18T16:31:09.003Z,10.55
2023-04-18T16:33:35.847Z,10.66
2023-04-18T16:36:05.086Z,10.55
2023-04-18T16:38:31.719Z,10.77
2023-04-18T16:40:58.748Z,10.55
2023-04-18T16:43:26.916Z,10.82
2023-04-18T16:45:56.250Z,10.78
2023-04-18T16:48:23.664Z,10.55
2023-04-18T16:50:50.567Z,10.55
2023-04-18T16:53:17.550Z,10.48
2023-04-18T16:55:44.287Z,10.72
2023-04-18T16:58:11.100Z,10.79
2023-04-18T17:00:38.508Z,10.80
2023-04-18T17:03:07.584Z,10.72
2023-04-18T17:05:34.089Z,10.74
2023-04-18T17:08:00.845Z,10.86
2023-04-18T17:10:29.845Z,10.91
2023-04-18T17:12:57.521Z,10.67
2023-04-18T17:15:23.940Z,10.53
2023-04-18T17:17:50.741Z,10.72
2023-04-18T17:20:17.854Z,10.75
2023-04-18T17:22:44.649Z,10.52
2023-04-18T17:25:11.502Z,10.24
2023-04-18T17:27:39.964Z,10.25
2023-04-18T17:30:07.203Z,10.40
2023-04-18T17:32:34.158Z,10.20
2023-04-18T17:35:04.128Z,10.10
2023-04-18T17:37:30.995Z,10.12
2023-04-18T17:39:59.172Z,10.03
2023-04-18T17:42:25.610Z,10.05
2023-04-18T17:44:51.918Z,9.98
2023-04-18T17:47:18.716Z,9.87
2023-04-18T17:49:45.906Z,9.83
2023-04-18T17:52:12.257Z,9.83
2023-04-18T17:54:39.038Z,9.72
2023-04-18T17:57:05.337Z,9.64
2023-04-18T17:59:37.433Z,9.66
2023-04-18T18:02:05.175Z,9.64
2023-04-18T18:04:31.718Z,9.61
2023-04-18T18:06:58.610Z,9.50
2023-04-18T18:09:25.626Z,9.62
2023-04-18T18:11:53.990Z,9.53
2023-04-18T18:14:22.508Z,9.42
2023-04-18T18:16:49.138Z,9.20
2023-04-18T18:19:16.382Z,9.39
2023-04-18T18:21:43.387Z,9.60
2023-04-18T18:24:11.016Z,9.61
2023-04-18T18:26:37.379Z,9.57
2023-04-18T18:29:09.312Z,9.51
2023-04-18T18:31:36.575Z,9.49
2023-04-18T18:34:03.226Z,9.40
2023-04-18T18:36:29.755Z,9.35
2023-04-18T18:38:56.529Z,9.29
2023-04-18T18:41:23.475Z,9.28
2023-04-18T18:43:51.125Z,9.32
2023-04-18T18:46:18.408Z,9.32
2023-04-18T18:48:44.791Z,9.34
2023-04-18T18:51:11.572Z,9.34
2023-04-18T18:53:40.370Z,9.31
2023-04-18T18:56:08.560Z,9.49
2023-04-18T18:58:35.549Z,9.43
2023-04-18T19:01:03.576Z,9.55
2023-04-18T19:03:30.360Z,9.58
2023-04-18T19:05:56.860Z,9.54
2023-04-18T19:08:23.640Z,9.46
2023-04-18T19:10:50.581Z,9.49
2023-04-18T19:13:18.901Z,9.46
2023-04-18T19:15:45.859Z,9.20
2023-04-18T19:18:12.365Z,9.40
2023-04-18T19:20:40.285Z,9.50
2023-04-18T19:23:07.144Z,9.48
2023-04-18T19:25:33.609Z,9.38
2023-04-18T19:28:00.014Z,9.46
2023-04-18T19:30:26.747Z,9.35
2023-04-18T19:32:53.199Z,9.33
2023-04-18T19:35:19.799Z,9.41
2023-04-18T19:37:47.059Z,9.42
2023-04-18T19:40:14.294Z,9.31
2023-04-18T19:42:41.308Z,9.31
2023-04-18T19:45:08.093Z,9.32
2023-04-18T19:47:34.492Z,9.13
2023-04-18T19:50:01.573Z,9.21
2023-04-18T19:52:27.905Z,9.17
2023-04-18T19:54:54.818Z,8.88
2023-04-18T19:57:21.996Z,8.80
2023-04-18T19:59:48.334Z,8.67
2023-04-18T20:02:15.079Z,8.72
2023-04-18T20:04:42.646Z,8.63
2023-04-18T20:07:09.191Z,8.48
2023-04-18T20:09:35.733Z,8.55
2023-04-18T20:12:02.963Z,8.63
2023-04-18T20:14:29.676Z,8.57
2023-04-18T20:16:56.767Z,8.60
2023-04-18T20:19:27.054Z,8.50
2023-04-18T20:21:53.399Z,8.56
2023-04-18T20:24:21.085Z,8.58
2023-04-18T20:26:48.131Z,8.49
2023-04-18T20:29:15.362Z,8.54
2023-04-18T20:31:42.310Z,8.49
2023-04-18T20:34:10.341Z,8.41
2023-04-18T20:36:41.309Z,8.52
2023-04-18T20:39:13.213Z,8.66
2023-04-18T20:41:46.489Z,8.72
2023-04-18T20:44:14.094Z,8.77
2023-04-18T20:46:40.872Z,8.70
2023-04-18T20:49:08.457Z,8.75
2023-04-18T20:51:37.264Z,8.79
2023-04-18T20:54:06.702Z,8.67
2023-04-18T20:56:33.708Z,8.53
2023-04-18T20:59:00.404Z,8.59
2023-04-18T21:01:26.807Z,8.62
2023-04-18T21:03:53.323Z,8.48
2023-04-18T21:06:22.431Z,8.58
2023-04-18T21:08:48.810Z,8.56
2023-04-18T21:11:15.218Z,8.64
2023-04-18T21:13:41.943Z,8.61
2023-04-18T21:16:10.088Z,8.73
2023-04-18T21:18:37.100Z,8.63
2023-04-18T21:21:04.287Z,8.62
2023-04-18T21:23:30.614Z,8.72
2023-04-18T21:25:56.944Z,8.67
2023-04-18T21:28:23.752Z,8.64
2023-04-18T21:30:50.611Z,8.75
2023-04-18T21:33:16.972Z,8.72
2023-04-18T21:35:43.873Z,8.58
2023-04-18T21:38:10.219Z,8.54
2023-04-18T21:40:37.323Z,8.65
2023-04-18T21:43:04.187Z,8.75
2023-04-18T21:45:30.690Z,8.64
2023-04-18T21:47:57.030Z,8.57
2023-04-18T21:50:23.833Z,8.58
2023-04-18T21:52:50.278Z,8.44
2023-04-18T21:55:17.967Z,8.48
2023-04-18T21:57:44.292Z,8.47
2023-04-18T22:00:11.553Z,8.50
2023-04-18T22:02:38.026Z,8.56
2023-04-18T22:05:04.761Z,8.67
2023-04-18T22:07:31.478Z,8.60
2023-04-18T22:09:59.682Z,8.63
2023-04-18T22:12:26.576Z,8.39
2023-04-18T22:14:52.954Z,8.30
2023-04-18T22:17:21.192Z,8.48
2023-04-18T22:19:50.290Z,8.36
2023-04-18T22:22:17.282Z,8.24
2023-04-18T22:24:45.002Z,8.35
2023-04-18T22:27:13.176Z,8.40
2023-04-18T22:29:39.530Z,8.29
2023-04-18T22:32:05.901Z,8.33
2023-04-18T22:34:32.218Z,8.29
2023-04-18T22:36:59.161Z,8.23
2023-04-18T22:39:26.006Z,8.34
2023-04-18T22:41:52.319Z,8.20
2023-04-18T22:44:19.277Z,8.25
2023-04-18T22:46:47.377Z,8.19
2023-04-18T22:49:14.047Z,8.23
2023-04-18T22:51:40.743Z,8.22
2023-04-18T22:54:07.065Z,8.13
2023-04-18T22:56:33.369Z,8.13
2023-04-18T22:59:00.051Z,8.21
2023-04-18T23:01:26.451Z,8.17
2023-04-18T23:03:52.990Z,8.06
2023-04-18T23:06:19.945Z,8.15
2023-04-18T23:08:46.303Z,8.34
2023-04-18T23:11:13.397Z,8.25
2023-04-18T23:13:40.239Z,8.20
2023-04-18T23:16:07.333Z,8.12
2023-04-18T23:18:34.183Z,7.99
2023-04-18T23:21:00.934Z,8.03
2023-04-18T23:23:27.239Z,8.07
2023-04-18T23:25:54.041Z,8.01
2023-04-18T23:28:20.516Z,7.85
2023-04-18T23:30:48.024Z,7.94
2023-04-18T23:33:14.997Z,7.86
2023-04-18T23:35:41.322Z,7.93
2023-04-18T23:38:07.763Z,8.01
2023-04-18T23:40:34.661Z,8.11
2023-04-18T23:43:01.847Z,8.20
2023-04-18T23:45:28.735Z,8.11
2023-04-18T23:47:55.176Z,8.07
2023-04-18T23:50:22.021Z,7.81
2023-04-18T23:52:48.726Z,7.77
2023-04-18T23:55:15.056Z,7.82
2023-04-18T23:57:41.754Z,7.93
